Time;durP1;ratioP1;P1;durP2;ratioP2;P2;SDS_P1;SDS_P2;PMS_P1;PMS_P2;Temp;Humidity;BMP_temperature;BMP_pressure;BME280_temperature;BME280_humidity;BME280_pressure;Samples;Min_cycle;Max_cycle;Signal;HPM_P1;HPM_P2
2022/08/11 00:01:04;;;;;;;;;;;;;;;23.29;38.25;100272.19;4346416;33;33082;-66
2022/08/11 00:03:31;;;;;;;;;;;;;;;23.36;38.19;100274.50;4346255;32;35112;-66
2022/08/11 00:06:12;;;;;;;;;;;;;;;22.99;38.79;100268.31;4355601;32;35010;-66
2022/08/11 00:08:40;;;;;;;;;;;;;;;23.26;38.51;100265.34;4360289;32;33905;-66
2022/08/11 00:11:08;;;;;;;;;;;;;;;23.15;38.80;100261.22;4348462;32;33294;-66
2022/08/11 00:13:37;;;;;;;;;;;;;;;23.23;38.87;100265.16;4347494;32;33661;-66
2022/08/11 00:16:10;;;;;;;;;;;;;;;22.69;39.51;100263.28;4347508;33;34138;-66
2022/08/11 00:18:39;;;;;;;;;;;;;;;22.58;39.69;100255.59;4346240;33;34942;-65
2022/08/11 00:21:06;;;;;;;;;;;;;;;21.77;41.29;100250.91;4346818;33;34782;-66
2022/08/11 00:23:34;;;;;;;;;;;;;;;21.95;40.80;100249.12;4346232;32;35054;-67
2022/08/11 00:26:04;;;;;;;;;;;;;;;21.96;40.96;100251.56;4346395;33;34530;-66
2022/08/11 00:28:33;;;;;;;;;;;;;;;22.22;40.59;100246.25;4346382;32;34973;-66
2022/08/11 00:31:02;;;;;;;;;;;;;;;22.02;40.81;100255.03;4347583;33;34083;-65
2022/08/11 00:33:36;;;;;;;;;;;;;;;21.60;41.79;100251.59;4346374;33;35112;-66
2022/08/11 00:36:11;;;;;;;;;;;;;;;21.94;41.18;100253.00;4347390;33;33921;-65
2022/08/11 00:38:40;;;;;;;;;;;;;;;22.04;41.12;100247.25;4346235;33;34031;-66
2022/08/11 00:41:26;;;;;;;;;;;;;;;21.58;42.33;100253.84;4346420;32;34121;-69
2022/08/11 00:44:11;;;;;;;;;;;;;;;21.95;41.98;100247.16;4332699;33;34152;-66
2022/08/11 00:46:45;;;;;;;;;;;;;;;21.34;42.79;100252.12;4345452;33;34238;-65
2022/08/11 00:49:35;;;;;;;;;;;;;;;21.66;42.01;100247.56;4347341;33;34051;-65
2022/08/11 00:52:21;;;;;;;;;;;;;;;21.24;42.94;100247.59;4332688;33;33611;-66
2022/08/11 00:55:01;;;;;;;;;;;;;;;20.98;43.43;100246.50;4347633;33;34178;-65
2022/08/11 00:57:35;;;;;;;;;;;;;;;21.12;43.26;100240.97;4347062;32;34421;-67
2022/08/11 01:00:10;;;;;;;;;;;;;;;20.89;43.56;100238.13;4347313;33;34645;-66
2022/08/11 01:02:37;;;;;;;;;;;;;;;20.64;44.22;100244.94;4347570;33;33560;-66
2022/08/11 01:05:07;;;;;;;;;;;;;;;21.03;43.33;100235.34;4347216;33;34203;-67
2022/08/11 01:07:44;;;;;;;;;;;;;;;20.69;44.05;100237.41;4346902;32;35770;-66
2022/08/11 01:10:32;;;;;;;;;;;;;;;21.08;43.31;100238.03;4346159;32;34212;-65
2022/08/11 01:13:20;;;;;;;;;;;;;;;21.14;43.06;100235.97;4347306;33;34311;-66
2022/08/11 01:16:05;;;;;;;;;;;;;;;21.12;43.00;100240.97;4346680;33;33697;-65
2022/08/11 01:18:53;;;;;;;;;;;;;;;21.21;42.68;100234.44;4345797;33;35060;-66
2022/08/11 01:21:34;;;;;;;;;;;;;;;21.04;43.06;100240.56;4347755;32;34003;-67
2022/08/11 01:24:21;;;;;;;;;;;;;;;20.82;43.60;100238.53;4347667;32;33400;-67
2022/08/11 01:26:50;;;;;;;;;;;;;;;21.28;42.62;100242.31;4346601;33;34231;-68
2022/08/11 01:29:28;;;;;;;;;;;;;;;21.00;43.02;100247.84;4345665;33;35129;-65
2022/08/11 01:32:00;;;;;;;;;;;;;;;21.35;42.46;100234.41;4347149;33;33997;-67
2022/08/11 01:34:43;;;;;;;;;;;;;;;21.29;42.64;100233.72;4346583;33;33408;-66
2022/08/11 01:37:15;;;;;;;;;;;;;;;21.40;42.41;100233.47;4346551;33;34233;-69
2022/08/11 01:40:22;;;;;;;;;;;;;;;21.17;42.64;100232.63;4346723;32;35374;-67
2022/08/11 01:45:59;;;;;;;;;;;;;;;21.29;42.78;100225.44;4329461;33;32605;-71
2022/08/11 01:48:31;;;;;;;;;;;;;;;21.09;43.06;100223.91;4334276;33;34050;-67
2022/08/11 01:51:02;;;;;;;;;;;;;;;21.16;43.15;100220.72;4346950;33;34205;-67
2022/08/11 01:53:50;;;;;;;;;;;;;;;21.22;42.80;100226.97;4351391;32;34062;-67
2022/08/11 01:56:37;;;;;;;;;;;;;;;21.06;43.31;100226.50;4348863;32;33408;-66
2022/08/11 01:59:17;;;;;;;;;;;;;;;21.49;42.58;100228.91;4346761;33;34365;-68
2022/08/11 02:01:45;;;;;;;;;;;;;;;21.20;43.09;100231.97;4345613;33;35233;-67
2022/08/11 02:04:17;;;;;;;;;;;;;;;21.37;42.34;100226.63;4346699;33;35008;-67
2022/08/11 02:06:55;;;;;;;;;;;;;;;21.20;42.94;100221.75;4346449;33;34240;-68
2022/08/11 02:09:42;;;;;;;;;;;;;;;21.34;42.48;100210.72;4345213;32;34336;-68
2022/08/11 02:12:25;;;;;;;;;;;;;;;21.42;42.51;100212.75;4346708;33;34230;-70
2022/08/11 02:14:59;;;;;;;;;;;;;;;21.16;42.87;100220.72;4345543;33;35041;-72
2022/08/11 02:17:35;;;;;;;;;;;;;;;21.68;41.78;100212.16;4353981;32;34015;-66
2022/08/11 02:26:22;;;;;;;;;;;;;;;21.25;43.30;100221.66;4344826;33;34539;-67
2022/08/11 02:29:11;;;;;;;;;;;;;;;21.26;42.92;100223.28;4345274;33;33051;-68
2022/08/11 02:35:02;;;;;;;;;;;;;;;21.70;41.35;100209.91;4345289;33;34270;-66
2022/08/11 02:37:31;;;;;;;;;;;;;;;;;;4344791;33;34044;-66
2022/08/11 02:39:59;;;;;;;;;;;;;;;21.58;42.25;100204.16;4346810;33;33436;-67
2022/08/11 02:42:46;;;;;;;;;;;;;;;21.37;42.47;100203.75;4348414;33;34182;-66
2022/08/11 02:45:36;;;;;;;;;;;;;;;21.50;42.33;100202.94;4351178;32;34369;-67
2022/08/11 02:51:01;;;;;;;;;;;;;;;21.56;42.18;100198.94;4347100;33;33483;-67
2022/08/11 02:53:52;;;;;;;;;;;;;;;21.60;42.03;100199.94;4348305;33;34310;-68
2022/08/11 02:56:43;;;;;;;;;;;;;;;21.28;42.97;100200.91;4345985;33;33890;-71
2022/08/11 02:59:50;;;;;;;;;;;;;;;21.66;42.02;100201.47;4348098;33;33645;-66
2022/08/11 03:02:30;;;;;;;;;;;;;;;21.56;42.45;100195.34;4301658;33;33306;-66
2022/08/11 03:05:06;;;;;;;;;;;;;;;21.54;42.42;100197.59;4302010;33;34264;-67
2022/08/11 03:07:53;;;;;;;;;;;;;;;21.61;42.14;100201.56;4315478;33;34420;-67
2022/08/11 03:10:27;;;;;;;;;;;;;;;21.67;42.20;100207.78;4333413;33;34009;-68
2022/08/11 03:18:56;;;;;;;;;;;;;;;22.15;40.83;100211.88;4347889;33;34365;-66
2022/08/11 03:21:24;;;;;;;;;;;;;;;21.49;42.62;100215.09;4346929;33;35069;-67
2022/08/11 03:24:27;;;;;;;;;;;;;;;21.66;42.02;100212.50;4347056;33;33240;-66
2022/08/11 03:26:55;;;;;;;;;;;;;;;21.61;41.79;100206.28;4347768;33;32712;-67
2022/08/11 03:29:22;;;;;;;;;;;;;;;21.66;41.89;100206.13;4350123;32;34119;-69
2022/08/11 03:32:00;;;;;;;;;;;;;;;21.45;42.30;100209.38;4354344;32;35016;-68
2022/08/11 03:34:29;;;;;;;;;;;;;;;20.97;43.53;100209.84;4346779;33;33299;-71
2022/08/11 03:37:11;;;;;;;;;;;;;;;21.46;42.31;100208.25;4346062;33;35026;-69
2022/08/11 03:39:53;;;;;;;;;;;;;;;21.42;42.66;100214.69;4346526;33;35251;-68
2022/08/11 03:42:39;;;;;;;;;;;;;;;21.41;42.72;100213.87;4337200;32;35051;-68
2022/08/11 03:45:22;;;;;;;;;;;;;;;21.56;42.44;100207.22;4361468;32;33958;-68
2022/08/11 03:47:57;;;;;;;;;;;;;;;21.57;42.36;100208.00;4335822;33;35192;-68
2022/08/11 03:50:43;;;;;;;;;;;;;;;21.40;42.77;100208.62;4346717;33;34266;-71
2022/08/11 03:53:19;;;;;;;;;;;;;;;21.41;42.59;100213.87;4347092;33;34133;-70
2022/08/11 03:55:52;;;;;;;;;;;;;;;21.48;42.42;100208.75;4346057;32;33139;-68
2022/08/11 03:58:42;;;;;;;;;;;;;;;21.96;41.81;100212.88;4347673;33;33866;-69
2022/08/11 04:01:33;;;;;;;;;;;;;;;21.70;41.80;100209.91;4346508;33;34475;-69
2022/08/11 04:04:07;;;;;;;;;;;;;;;21.37;42.72;100217.56;4333075;32;33368;-71
2022/08/11 04:06:54;;;;;;;;;;;;;;;21.11;43.05;100215.34;4348400;32;33447;-71
2022/08/11 04:09:46;;;;;;;;;;;;;;;21.65;42.27;100210.84;4343084;33;34320;-67
2022/08/11 04:12:17;;;;;;;;;;;;;;;22.59;41.11;100212.97;4343463;32;34898;-68
2022/08/11 04:18:03;;;;;;;;;;;;;;;23.32;39.95;100224.47;4346226;33;34403;-75
2022/08/11 04:20:43;;;;;;;;;;;;;;;23.60;38.51;100221.41;4364353;32;34116;-66
2022/08/11 04:23:10;;;;;;;;;;;;;;;23.90;38.53;100214.13;4345176;32;34172;-68
2022/08/11 04:26:17;;;;;;;;;;;;;;;23.48;39.09;100217.34;4345162;33;35283;-73
2022/08/11 04:29:08;;;;;;;;;;;;;;;23.91;38.72;100226.84;4345830;33;33551;-72
2022/08/11 04:31:44;;;;;;;;;;;;;;;23.96;39.35;100234.97;4342559;33;33900;-71
2022/08/11 04:34:37;;;;;;;;;;;;;;;24.02;38.61;100239.22;4345307;33;34516;-72
2022/08/11 04:40:00;;;;;;;;;;;;;;;24.61;37.80;100230.31;4357674;32;33284;-72
2022/08/11 04:45:33;;;;;;;;;;;;;;;24.30;40.68;100238.88;4345669;33;34199;-72
2022/08/11 05:02:25;;;;;;;;;;;;;;;25.95;36.91;100240.84;4345444;33;33529;-72
2022/08/11 05:07:57;;;;;;;;;;;;;;;26.10;36.34;100233.84;4347215;33;34295;-71
2022/08/11 05:10:28;;;;;;;;;;;;;;;26.32;36.32;100235.41;4346336;32;35014;-72
2022/08/11 05:12:56;;;;;;;;;;;;;;;26.23;36.54;100236.66;4345794;33;33297;-71
2022/08/11 05:35:31;;;;;;;;;;;;;;;24.84;35.83;100255.88;4346189;33;34521;-72
2022/08/11 05:58:04;;;;;;;;;;;;;;;24.79;36.58;100258.00;4345095;33;33073;-71
2022/08/11 06:00:37;;;;;;;;;;;;;;;23.89;37.84;100252.09;4345743;33;35061;-71
2022/08/11 06:03:06;;;;;;;;;;;;;;;23.81;38.45;100257.66;4346355;33;34072;-70
2022/08/11 06:05:34;;;;;;;;;;;;;;;24.52;37.44;100265.59;4347365;33;35008;-71
2022/08/11 06:08:11;;;;;;;;;;;;;;;24.16;36.71;100266.75;4346309;33;33649;-75
2022/08/11 06:10:40;;;;;;;;;;;;;;;24.08;36.30;100262.88;4347610;33;34295;-71
2022/08/11 06:13:07;;;;;;;;;;;;;;;24.08;37.17;100254.56;4347292;33;35318;-71
2022/08/11 06:15:45;;;;;;;;;;;;;;;25.10;34.64;100266.06;4346717;33;35087;-73
2022/08/11 06:18:12;;;;;;;;;;;;;;;24.71;35.81;100266.03;4348225;33;34151;-72
2022/08/11 06:20:50;;;;;;;;;;;;;;;24.73;35.41;100266.53;4349114;33;34393;-73
2022/08/11 06:23:18;;;;;;;;;;;;;;;25.37;34.54;100270.34;4349234;33;34258;-73
2022/08/11 06:25:46;;;;;;;;;;;;;;;25.26;34.18;100257.97;4336154;33;33505;-74
2022/08/11 06:28:13;;;;;;;;;;;;;;;24.45;35.98;100254.16;4348222;33;34420;-74
2022/08/11 06:30:47;;;;;;;;;;;;;;;23.71;37.36;100247.66;4337009;33;34334;-72
2022/08/11 06:33:17;;;;;;;;;;;;;;;24.58;35.48;100252.34;4348305;33;34323;-71
2022/08/11 06:35:56;;;;;;;;;;;;;;;24.89;34.99;100261.22;4347682;33;33823;-71
2022/08/11 06:38:23;;;;;;;;;;;;;;;25.17;35.19;100266.34;4347997;33;34219;-74
2022/08/11 06:43:46;;;;;;;;;;;;;;;25.87;33.22;100258.38;4348407;33;35255;-72
2022/08/11 06:46:24;;;;;;;;;;;;;;;24.93;33.27;100255.84;4348240;33;34114;-71
2022/08/11 06:48:55;;;;;;;;;;;;;;;25.52;32.72;100253.06;4336156;33;32757;-72
2022/08/11 06:51:22;;;;;;;;;;;;;;;25.97;32.55;100255.22;4348025;33;34180;-73
2022/08/11 06:53:52;;;;;;;;;;;;;;;25.36;33.40;100257.59;4347935;33;34406;-74
2022/08/11 07:02:42;;;;;;;;;;;;;;;25.45;32.60;100255.56;4343561;33;32669;-71
2022/08/11 07:05:10;;;;;;;;;;;;;;;25.30;32.85;100251.41;4347914;33;35008;-73
2022/08/11 07:16:52;;;;;;;;;;;;;;;24.86;33.86;100242.47;4345655;33;34609;-68
2022/08/11 07:30:29;;;;;;;;;;;;;;;26.37;31.11;100243.56;4347318;33;33985;-71
2022/08/11 07:32:57;;;;;;;;;;;;;;;26.76;28.92;100240.50;4347697;33;34055;-70
2022/08/11 07:35:31;;;;;;;;;;;;;;;26.44;29.88;100239.41;4347473;33;34070;-70
2022/08/11 07:38:01;;;;;;;;;;;;;;;26.49;31.43;100239.97;4346219;33;35285;-73
2022/08/11 07:40:33;;;;;;;;;;;;;;;26.74;29.22;100234.50;4346796;33;34344;-69
2022/08/11 07:43:01;;;;;;;;;;;;;;;25.83;30.49;100243.53;4345812;33;33515;-67
2022/08/11 07:53:46;;;;;;;;;;;;;;;25.81;30.98;100231.94;4346077;33;33460;-68
2022/08/11 07:56:34;;;;;;;;;;;;;;;25.95;29.59;100226.13;4345578;33;34223;-71
2022/08/11 08:19:15;;;;;;;;;;;;;;;25.86;30.13;100219.81;4346404;33;34923;-69
2022/08/11 08:21:42;;;;;;;;;;;;;;;26.70;29.00;100220.47;4346333;33;34935;-69
2022/08/11 08:24:11;;;;;;;;;;;;;;;26.11;29.36;100213.22;4347492;33;34083;-74
2022/08/11 08:26:57;;;;;;;;;;;;;;;26.44;28.33;100217.94;4346265;33;34665;-69
2022/08/11 08:32:21;;;;;;;;;;;;;;;25.38;30.71;100220.00;4346375;33;34521;-69
2022/08/11 08:34:48;;;;;;;;;;;;;;;25.63;31.03;100228.47;4346290;33;33990;-69
2022/08/11 08:37:20;;;;;;;;;;;;;;;25.29;31.84;100221.19;4345972;33;34085;-69
2022/08/11 08:40:08;;;;;;;;;;;;;;;25.08;32.70;100221.16;4347259;33;34909;-70
2022/08/11 08:42:40;;;;;;;;;;;;;;;24.96;32.27;100219.06;4346278;33;34393;-70
2022/08/11 08:45:14;;;;;;;;;;;;;;;25.49;32.75;100212.09;4345602;33;34531;-73
2022/08/11 08:47:42;;;;;;;;;;;;;;;25.63;32.02;100209.03;4334228;33;33866;-71
2022/08/11 08:50:11;;;;;;;;;;;;;;;25.25;32.39;100209.13;4346177;33;35014;-70
2022/08/11 08:52:51;;;;;;;;;;;;;;;25.52;32.29;100205.84;4347338;33;34462;-69
2022/08/11 08:55:18;;;;;;;;;;;;;;;25.62;32.22;100203.84;4346142;33;34861;-76
2022/08/11 08:57:47;;;;;;;;;;;;;;;25.35;30.90;100214.28;4345843;33;34200;-70
2022/08/11 09:00:15;;;;;;;;;;;;;;;25.54;31.60;100211.06;4347357;33;35128;-75
2022/08/11 09:02:49;;;;;;;;;;;;;;;25.68;31.29;100208.84;4348314;33;34563;-70
2022/08/11 09:05:16;;;;;;;;;;;;;;;25.99;31.53;100194.53;4347301;33;34437;-69
2022/08/11 09:07:46;;;;;;;;;;;;;;;25.84;31.21;100200.69;4348576;33;34146;-70
2022/08/11 09:10:16;;;;;;;;;;;;;;;25.50;32.85;100202.59;4346747;33;34281;-70
2022/08/11 09:12:43;;;;;;;;;;;;;;;25.70;31.66;100194.59;4347251;33;35184;-72
2022/08/11 09:15:11;;;;;;;;;;;;;;;26.14;31.08;100195.03;4347488;33;34200;-71
2022/08/11 09:17:46;;;;;;;;;;;;;;;26.16;30.61;100193.53;4347100;33;33098;-75
2022/08/11 09:20:20;;;;;;;;;;;;;;;26.24;30.72;100188.22;4347137;33;35127;-71
2022/08/11 11:20:13;;;;;;;;;;;;;;;27.18;24.93;100073.97;4361889;32;33471;-67
2022/08/11 11:23:02;;;;;;;;;;;;;;;26.49;26.09;100073.03;4361471;32;36423;-67
2022/08/11 11:26:05;;;;;;;;;;;;;;;27.64;24.49;100073.69;4361601;32;34371;-67
2022/08/11 11:28:46;;;;;;;;;;;;;;;27.68;24.05;100071.03;4362094;32;34968;-67
2022/08/11 11:31:25;;;;;;;;;;;;;;;27.47;22.59;100060.87;4361630;32;33311;-68
2022/08/11 11:34:11;;;;;;;;;;;;;;;27.86;23.48;100055.59;4362744;32;34246;-67
2022/08/11 11:36:55;;;;;;;;;;;;;;;28.40;20.55;100057.78;4362676;32;34341;-68
2022/08/11 11:39:23;;;;;;;;;;;;;;;28.30;21.37;100052.75;4362634;32;34294;-68
2022/08/11 11:41:51;;;;;;;;;;;;;;;27.88;21.90;100050.47;4360980;32;33793;-66
2022/08/11 11:44:19;;;;;;;;;;;;;;;27.56;24.08;100052.38;4360996;32;34380;-67
2022/08/11 11:46:46;;;;;;;;;;;;;;;27.22;22.66;100051.84;4362716;32;34512;-68
2022/08/11 11:49:14;;;;;;;;;;;;;;;28.36;21.92;100042.12;4362518;32;35033;-71
2022/08/11 11:51:46;;;;;;;;;;;;;;;28.26;21.75;100040.69;4362545;32;33248;-67
2022/08/11 11:54:17;;;;;;;;;;;;;;;28.45;23.12;100009.25;4361393;32;34070;-69
2022/08/11 11:56:44;;;;;;;;;;;;;;;27.85;22.60;100037.25;4362233;32;34573;-67
2022/08/11 12:01:57;;;;;;;;;;;;;;;28.00;23.22;100035.66;4362423;32;34117;-68
2022/08/11 12:04:25;;;;;;;;;;;;;;;28.47;23.68;100025.59;4361282;32;34163;-68
2022/08/11 12:08:08;;;;;;;;;;;;;;;28.54;22.56;100028.62;4362276;32;34510;-68
2022/08/11 12:09:40;;;;;;;;;;;;;;;29.15;21.88;100021.56;4362484;32;34523;-66
2022/08/11 12:14:53;;;;;;;;;;;;;;;27.82;22.73;100015.66;4346095;33;34416;-67
2022/08/11 12:17:21;;;;;;;;;;;;;;;27.51;23.52;100013.63;4341679;32;34331;-65
2022/08/11 12:19:48;;;;;;;;;;;;;;;27.73;22.92;100015.00;4346191;33;35095;-66
2022/08/11 12:27:48;;;;;;;;;;;;;;;27.56;23.39;100011.41;4347072;33;35392;-65
2022/08/11 12:30:15;;;;;;;;;;;;;;;27.92;22.81;100008.75;4347186;33;34355;-65
2022/08/11 12:32:42;;;;;;;;;;;;;;;28.62;21.67;99997.69;4346938;33;33287;-68
2022/08/11 12:35:10;;;;;;;;;;;;;;;27.75;23.52;100004.31;4345792;33;34212;-63
2022/08/11 12:37:42;;;;;;;;;;;;;;;27.52;24.00;100004.13;4345784;33;34239;-67
2022/08/11 12:46:07;;;;;;;;;;;;;;;26.96;24.22;99993.78;4346617;33;34217;-67
2022/08/11 12:54:56;;;;;;;;;;;;;;;27.43;24.78;100004.28;4320728;33;861259;-67
2022/08/11 13:05:46;;;;;;;;;;;;;;;27.24;25.32;99982.66;4346005;33;34093;-69
2022/08/11 13:08:13;;;;;;;;;;;;;;;27.64;24.21;99984.50;4345590;33;34308;-67
2022/08/11 13:13:28;;;;;;;;;;;;;;;27.63;24.23;99977.31;4345803;33;34218;-70
2022/08/11 13:16:15;;;;;;;;;;;;;;;27.89;23.91;99971.25;4346869;33;33385;-71
2022/08/11 13:18:43;;;;;;;;;;;;;;;27.81;23.53;99970.22;4333721;33;34178;-70
2022/08/11 13:21:10;;;;;;;;;;;;;;;27.51;24.13;99971.81;4344801;33;34125;-70
2022/08/11 13:23:47;;;;;;;;;;;;;;;27.22;24.91;99968.28;4345760;33;35158;-69
2022/08/11 13:26:31;;;;;;;;;;;;;;;27.40;24.10;99961.19;4345900;33;33687;-69
2022/08/11 13:29:17;;;;;;;;;;;;;;;27.44;23.67;99954.91;4346201;33;34246;-70
2022/08/11 13:31:44;;;;;;;;;;;;;;;27.31;24.88;99952.19;4345834;33;35153;-69
2022/08/11 13:34:12;;;;;;;;;;;;;;;27.39;26.11;99950.44;4345893;33;35069;-70
2022/08/11 13:36:39;;;;;;;;;;;;;;;27.67;24.52;99950.34;4345691;33;33945;-69
2022/08/11 13:39:06;;;;;;;;;;;;;;;27.70;24.70;99954.41;4346253;33;33174;-69
2022/08/11 13:41:38;;;;;;;;;;;;;;;27.81;24.23;99952.69;4346871;33;35349;-69
2022/08/11 13:44:06;;;;;;;;;;;;;;;27.15;25.49;99951.34;4347877;33;34051;-73
2022/08/11 13:46:33;;;;;;;;;;;;;;;27.10;25.83;99954.38;4347018;33;33308;-70
2022/08/11 13:49:01;;;;;;;;;;;;;;;26.99;25.76;99954.06;4346835;33;35142;-72
2022/08/11 13:51:34;;;;;;;;;;;;;;;27.24;25.54;99940.06;4347761;33;34331;-73
2022/08/11 13:54:06;;;;;;;;;;;;;;;27.33;24.81;99944.28;4347980;33;34895;-73
2022/08/11 13:56:34;;;;;;;;;;;;;;;26.70;26.66;99944.09;4346507;33;33420;-69
2022/08/11 13:59:01;;;;;;;;;;;;;;;27.64;25.51;99939.09;4346991;33;33484;-72
2022/08/11 14:01:30;;;;;;;;;;;;;;;26.98;27.23;99942.13;4346578;33;34394;-69
2022/08/11 14:39:22;;;;;;;;;;;;;;;26.91;28.14;99932.75;4317763;33;34370;-71
2022/08/11 14:47:30;;;;;;;;;;;;;;;26.49;28.65;99930.31;4294064;33;33993;-70
2022/08/11 14:49:58;;;;;;;;;;;;;;;26.83;28.05;99933.75;4324774;33;34977;-71
2022/08/11 14:52:46;;;;;;;;;;;;;;;27.11;27.57;99928.16;4319709;33;34114;-69
2022/08/11 14:57:59;;;;;;;;;;;;;;;26.78;27.47;99934.78;4331046;33;34571;-69
2022/08/11 15:00:26;;;;;;;;;;;;;;;26.95;28.49;99920.53;4319008;33;34289;-70
2022/08/11 15:03:09;;;;;;;;;;;;;;;26.82;28.56;99923.75;4331157;33;33996;-65
2022/08/11 15:05:43;;;;;;;;;;;;;;;26.39;28.49;99926.03;4320574;33;33330;-65
2022/08/11 15:14:06;;;;;;;;;;;;;;;27.13;27.06;99923.03;4332295;33;34340;-68
2022/08/11 15:19:21;;;;;;;;;;;;;;;27.05;28.04;99915.66;4332207;33;35173;-66
2022/08/11 15:24:35;;;;;;;;;;;;;;;27.25;27.35;99916.59;4321444;33;34817;-69
2022/08/11 15:38:35;;;;;;;;;;;;;;;27.04;27.01;99916.81;4336349;33;32899;-66
2022/08/11 15:46:48;;;;;;;;;;;;;;;26.70;27.66;99914.28;4340170;33;34961;-68
2022/08/11 15:49:22;;;;;;;;;;;;;;;26.65;26.96;99910.94;4346562;33;33507;-68
2022/08/11 15:51:54;;;;;;;;;;;;;;;26.38;26.95;99911.31;4333278;33;33583;-68
2022/08/11 15:54:24;;;;;;;;;;;;;;;27.00;26.34;99906.38;4334135;33;34479;-68
2022/08/11 15:56:53;;;;;;;;;;;;;;;26.98;25.88;99908.72;4332765;33;35139;-67
2022/08/11 16:05:01;;;;;;;;;;;;;;;27.16;26.48;99903.63;4322195;33;34489;-68
2022/08/11 16:07:34;;;;;;;;;;;;;;;26.91;26.32;99902.97;4319159;33;34351;-68
2022/08/11 16:10:11;;;;;;;;;;;;;;;26.94;26.15;99905.03;4320967;33;33476;-68
2022/08/11 16:18:42;;;;;;;;;;;;;;;26.69;25.92;99895.94;4339360;33;33769;-67
2022/08/11 16:21:11;;;;;;;;;;;;;;;27.47;25.63;99892.88;4338504;33;33030;-67
2022/08/11 16:23:58;;;;;;;;;;;;;;;27.20;25.32;99898.97;4332429;33;35192;-67
2022/08/11 16:26:25;;;;;;;;;;;;;;;27.04;25.59;99891.72;4332260;33;34467;-68
2022/08/11 16:29:12;;;;;;;;;;;;;;;27.12;25.47;99897.13;4333920;33;34229;-69
2022/08/11 16:31:40;;;;;;;;;;;;;;;27.89;25.83;99897.94;4339771;33;33595;-68
2022/08/11 16:38:33;;;;;;;;;;;;;;;27.72;24.96;99899.91;4329826;33;35093;-68
2022/08/11 16:39:41;;;;;;;;;;;;;;;27.78;24.94;99889.28;4336146;33;33901;-69
2022/08/11 16:48:05;;;;;;;;;;;;;;;27.36;25.55;99901.78;4294984;33;34526;-70
2022/08/11 16:50:52;;;;;;;;;;;;;;;26.88;26.32;99898.09;4331390;33;34745;-71
2022/08/11 16:53:20;;;;;;;;;;;;;;;26.50;27.26;99892.97;4330616;33;31980;-69
2022/08/11 16:56:07;;;;;;;;;;;;;;;26.29;27.80;99896.75;4331547;33;33865;-68
2022/08/11 17:01:22;;;;;;;;;;;;;;;26.32;28.63;99896.03;4332426;33;33371;-68
2022/08/11 17:13:07;;;;;;;;;;;;;;;26.11;29.56;99893.44;4333194;33;34523;-70
2022/08/11 17:18:45;;;;;;;;;;;;;;;26.18;29.59;99893.66;4334359;33;34082;-68
2022/08/11 17:21:22;;;;;;;;;;;;;;;26.12;29.83;99894.25;4330797;33;34039;-67
2022/08/11 17:23:51;;;;;;;;;;;;;;;26.14;29.84;99887.16;4338503;33;34866;-68
2022/08/11 17:26:20;;;;;;;;;;;;;;;26.07;30.11;99886.13;4337413;33;33253;-69
2022/08/11 17:28:51;;;;;;;;;;;;;;;25.79;30.60;99892.41;4325278;33;33995;-69
2022/08/11 17:36:53;;;;;;;;;;;;;;;24.97;32.28;99913.41;4327738;33;33903;-74
2022/08/11 17:39:23;;;;;;;;;;;;;;;24.60;33.29;99912.44;4330306;33;34950;-67
2022/08/11 17:50:09;;;;;;;;;;;;;;;24.18;34.98;99940.09;4330001;33;34982;-69
2022/08/11 18:01:05;;;;;;;;;;;;;;;23.31;37.30;99935.72;4320500;33;34581;-70
2022/08/11 18:03:38;;;;;;;;;;;;;;;23.20;37.52;99947.50;4318841;33;34054;-70
2022/08/11 18:06:07;;;;;;;;;;;;;;;23.31;37.16;99944.03;4317854;33;34050;-67
